Time;durP1;ratioP1;P1;durP2;ratioP2;P2;SDS_P1;SDS_P2;PMS_P1;PMS_P2;Temp;Humidity;BMP_temperature;BMP_pressure;BME280_temperature;BME280_humidity;BME280_pressure;Samples;Min_cycle;Max_cycle;Signal;HPM_P1;HPM_P2
2021/12/15 00:00:11;;;;;;;20.30;18.05;;;17.60;83.90;;;;;;5115777;28;20464;-70
2021/12/15 00:02:37;;;;;;;21.05;17.20;;;17.50;83.60;;;;;;5116185;28;20023;-71
2021/12/15 00:05:05;;;;;;;15.10;12.07;;;17.50;83.60;;;;;;5114724;28;20012;-71
2021/12/15 00:07:32;;;;;;;19.65;17.55;;;17.50;83.70;;;;;;5115536;28;20027;-70
2021/12/15 00:09:58;;;;;;;20.08;17.50;;;17.50;83.50;;;;;;5115629;28;20012;-70
2021/12/15 00:12:24;;;;;;;20.33;18.30;;;17.60;83.20;;;;;;5115549;28;20031;-70
2021/12/15 00:14:50;;;;;;;21.60;19.38;;;17.50;83.30;;;;;;5115548;28;20047;-71
2021/12/15 00:17:17;;;;;;;21.17;18.50;;;17.50;83.20;;;;;;5115943;28;20016;-71
2021/12/15 00:19:44;;;;;;;20.85;16.55;;;17.40;83.20;;;;;;5115671;28;20169;-70
2021/12/15 00:22:09;;;;;;;16.05;13.63;;;17.40;83.40;;;;;;5115390;28;20024;-70
2021/12/15 00:24:35;;;;;;;20.65;18.40;;;17.40;83.60;;;;;;5115766;28;20027;-70
2021/12/15 00:27:01;;;;;;;20.33;17.83;;;17.30;83.60;;;;;;5115570;28;20426;-71
2021/12/15 00:29:27;;;;;;;16.00;14.25;;;17.30;83.40;;;;;;5115266;28;20031;-71
2021/12/15 00:31:53;;;;;;;18.40;16.50;;;17.40;83.60;;;;;;5114037;28;20498;-71
2021/12/15 00:34:20;;;;;;;18.65;16.70;;;17.30;83.70;;;;;;5115269;28;20074;-72
2021/12/15 00:36:47;;;;;;;15.80;14.20;;;17.30;83.70;;;;;;5113713;28;20016;-77
2021/12/15 00:39:18;;;;;;;19.92;17.92;;;17.30;83.70;;;;;;5115131;28;20080;-72
2021/12/15 00:41:44;;;;;;;21.17;18.98;;;17.30;83.60;;;;;;5115070;28;20031;-77
2021/12/15 00:44:10;;;;;;;15.57;13.98;;;17.30;83.60;;;;;;5115006;28;20465;-76
2021/12/15 00:46:37;;;;;;;13.82;12.35;;;17.30;83.90;;;;;;5115160;28;20492;-72
2021/12/15 00:49:04;;;;;;;20.63;18.45;;;17.30;83.90;;;;;;5113863;28;20484;-72
2021/12/15 00:51:30;;;;;;;17.58;15.70;;;17.20;83.70;;;;;;5114794;28;20068;-70
2021/12/15 00:53:56;;;;;;;19.95;17.88;;;17.30;83.70;;;;;;5114914;28;20110;-71
2021/12/15 00:56:21;;;;;;;17.02;15.32;;;17.20;83.80;;;;;;5113503;28;20012;-77
2021/12/15 00:58:47;;;;;;;21.17;18.88;;;17.20;83.70;;;;;;5114987;28;20465;-72
2021/12/15 01:01:13;;;;;;;20.05;17.95;;;17.20;83.70;;;;;;5114739;28;20023;-72
2021/12/15 01:03:38;;;;;;;20.05;17.92;;;17.20;83.90;;;;;;5113464;28;20381;-71
2021/12/15 01:06:09;;;;;;;21.92;19.63;;;17.20;83.90;;;;;;5114482;28;20016;-71
2021/12/15 01:08:45;;;;;;;21.05;18.92;;;17.10;83.70;;;;;;5114634;27;20066;-70
2021/12/15 01:11:27;;;;;;;22.63;19.80;;;17.10;83.90;;;;;;5114642;28;20024;-71
2021/12/15 01:19:48;;;;;;;21.65;18.60;;;17.20;84.00;;;;;;5114379;28;20592;-71
2021/12/15 01:22:15;;;;;;;15.13;13.52;;;17.10;84.60;;;;;;5114430;28;20088;-71
2021/12/15 01:24:41;;;;;;;14.05;12.60;;;17.20;84.00;;;;;;5114415;28;20023;-72
2021/12/15 01:27:07;;;;;;;21.15;18.88;;;17.20;84.00;;;;;;5114392;28;20080;-71
2021/12/15 01:29:32;;;;;;;15.00;13.32;;;17.20;83.90;;;;;;5114328;28;20023;-70
2021/12/15 01:31:59;;;;;;;20.42;18.23;;;17.20;84.00;;;;;;5113974;28;20095;-70
2021/12/15 01:34:25;;;;;;;21.13;18.17;;;17.20;83.90;;;;;;5112601;28;20399;-71
2021/12/15 01:36:50;;;;;;;18.88;14.80;;;17.10;84.00;;;;;;5114125;28;20461;-70
2021/12/15 01:39:16;;;;;;;16.77;14.93;;;17.10;84.00;;;;;;5114124;28;20477;-70
2021/12/15 01:41:43;;;;;;;15.63;13.65;;;17.10;83.80;;;;;;5114006;28;20027;-70
2021/12/15 01:49:45;;;;;;;14.65;13.20;;;17.10;84.00;;;;;;5100475;28;20062;-73
2021/12/15 01:52:27;;;;;;;17.92;15.48;;;17.10;83.90;;;;;;5111941;28;20473;-72
2021/12/15 01:54:57;;;;;;;20.33;18.00;;;17.10;83.80;;;;;;5113857;28;20509;-72
2021/12/15 01:57:26;;;;;;;23.35;19.60;;;17.00;83.80;;;;;;5113631;28;20469;-76
2021/12/15 01:59:53;;;;;;;21.25;18.95;;;17.00;83.90;;;;;;5113723;28;20465;-73
2021/12/15 02:02:20;;;;;;;23.35;20.90;;;17.00;83.90;;;;;;5113572;28;20018;-73
2021/12/15 02:04:46;;;;;;;20.40;18.23;;;17.00;83.90;;;;;;5113831;28;20023;-73
2021/12/15 02:07:16;;;;;;;20.70;17.75;;;17.00;84.00;;;;;;5113621;28;20020;-77
2021/12/15 02:12:22;;;;;;;16.85;14.57;;;17.00;84.10;;;;;;5113542;28;20039;-76
2021/12/15 02:14:49;;;;;;;16.67;14.90;;;17.00;84.20;;;;;;5113483;28;20484;-75
2021/12/15 02:17:16;;;;;;;23.02;20.67;;;17.00;84.20;;;;;;5113249;28;20106;-77
2021/12/15 02:19:42;;;;;;;21.67;19.50;;;17.00;84.10;;;;;;5113522;28;20035;-77
2021/12/15 02:22:08;;;;;;;20.98;18.55;;;17.00;84.20;;;;;;5113701;28;20020;-77
2021/12/15 02:24:36;;;;;;;23.75;19.80;;;16.90;84.10;;;;;;5113664;28;20473;-77
2021/12/15 02:27:04;;;;;;;19.42;16.58;;;16.90;84.20;;;;;;5113288;28;20464;-76
2021/12/15 02:29:34;;;;;;;22.92;19.70;;;16.90;84.30;;;;;;5112330;28;20480;-77
2021/12/15 02:34:56;;;;;;;14.90;13.38;;;16.90;84.40;;;;;;5113743;28;20039;-76
2021/12/15 02:37:20;;;;;;;21.13;18.67;;;16.90;84.30;;;;;;5113203;28;20112;-71
2021/12/15 02:39:56;;;;;;;23.42;20.38;;;17.00;84.20;;;;;;5113473;28;20020;-70
2021/12/15 02:42:26;;;;;;;18.48;16.15;;;16.90;84.20;;;;;;5113413;28;20051;-71
2021/12/15 02:44:51;;;;;;;23.17;20.73;;;16.90;84.10;;;;;;5114423;28;20036;-72
2021/12/15 02:47:22;;;;;;;21.25;18.65;;;16.90;84.20;;;;;;5113317;28;20069;-71
2021/12/15 02:49:51;;;;;;;26.40;22.52;;;16.80;84.40;;;;;;5113242;28;20019;-77
2021/12/15 02:52:17;;;;;;;22.90;20.48;;;16.80;84.40;;;;;;5113381;28;20501;-77
2021/12/15 02:54:43;;;;;;;19.52;17.00;;;16.80;84.50;;;;;;5113331;28;20039;-77
2021/12/15 02:57:12;;;;;;;17.13;15.38;;;16.90;84.60;;;;;;5113005;28;20022;-71
2021/12/15 02:59:53;;;;;;;17.60;15.75;;;16.90;84.50;;;;;;5113436;28;20024;-71
2021/12/15 03:05:10;;;;;;;13.23;11.82;;;16.90;84.40;;;;;;5114398;28;20068;-71
2021/12/15 03:07:49;;;;;;;14.35;12.82;;;16.90;84.40;;;;;;5116852;28;20488;-71
2021/12/15 03:15:48;;;;;;;22.80;19.33;;;16.90;84.30;;;;;;5117294;28;20119;-71
2021/12/15 03:18:17;;;;;;;27.05;22.52;;;16.90;84.40;;;;;;5116524;28;20102;-70
2021/12/15 03:20:52;;;;;;;25.60;22.80;;;16.80;84.40;;;;;;5116935;28;20039;-71
2021/12/15 03:23:58;;;;;;;22.88;19.65;;;16.70;84.50;;;;;;5116722;28;20024;-70
2021/12/15 03:26:34;;;;;;;22.25;19.70;;;16.70;85.40;;;;;;5116243;28;20042;-70
2021/12/15 03:34:50;;;;;;;22.33;19.92;;;16.80;84.50;;;;;;5116469;28;20496;-71
2021/12/15 03:39:46;;;;;;;28.02;23.20;;;16.70;85.20;;;;;;5116137;28;20031;-72
2021/12/15 03:42:17;;;;;;;20.65;17.92;;;16.70;84.60;;;;;;5115283;28;20024;-70
2021/12/15 03:44:44;;;;;;;21.40;17.88;;;16.70;84.70;;;;;;5115900;28;20061;-71
2021/12/15 03:47:26;;;;;;;27.75;22.52;;;16.70;84.80;;;;;;5116331;28;20394;-70
2021/12/15 03:49:54;;;;;;;21.35;18.60;;;16.60;84.70;;;;;;5114902;28;20389;-71
2021/12/15 03:52:21;;;;;;;25.00;21.92;;;16.70;84.80;;;;;;5116275;28;20465;-70
2021/12/15 03:54:47;;;;;;;25.35;22.60;;;16.60;84.80;;;;;;5115997;28;20081;-70
2021/12/15 03:57:12;;;;;;;20.45;18.27;;;16.60;84.80;;;;;;5116136;28;20024;-71
2021/12/15 03:59:42;;;;;;;21.00;18.83;;;16.60;85.00;;;;;;5115760;28;20032;-71
2021/12/15 04:02:09;;;;;;;28.27;22.95;;;16.60;85.00;;;;;;5116208;27;20468;-72
2021/12/15 04:04:35;;;;;;;20.65;18.48;;;16.60;85.70;;;;;;5116810;28;20020;-76
2021/12/15 04:07:01;;;;;;;23.17;19.95;;;16.50;85.20;;;;;;5116494;28;20460;-74
2021/12/15 04:09:27;;;;;;;25.13;22.10;;;16.50;85.20;;;;;;5115933;28;20429;-76
2021/12/15 04:11:54;;;;;;;24.55;21.85;;;16.50;85.20;;;;;;5114536;28;20024;-72
2021/12/15 04:14:23;;;;;;;20.55;18.35;;;16.50;85.20;;;;;;5115287;28;20047;-76
2021/12/15 04:17:03;;;;;;;21.55;17.67;;;16.60;85.30;;;;;;5115429;28;20045;-76
2021/12/15 04:19:30;;;;;;;24.73;21.73;;;16.50;85.20;;;;;;5115556;28;20016;-76
2021/12/15 04:21:55;;;;;;;23.08;20.10;;;16.50;85.20;;;;;;5114514;28;20106;-76
2021/12/15 04:24:24;;;;;;;17.85;16.00;;;16.50;85.40;;;;;;5115387;28;20103;-76
2021/12/15 04:26:50;;;;;;;22.27;19.38;;;16.50;85.30;;;;;;5115495;28;20496;-74
2021/12/15 04:29:16;;;;;;;22.30;19.83;;;16.50;85.30;;;;;;5114847;28;20016;-75
2021/12/15 04:32:05;;;;;;;24.27;21.67;;;16.50;85.40;;;;;;5115537;28;20490;-75
2021/12/15 04:34:30;;;;;;;24.88;21.70;;;16.50;85.40;;;;;;5114822;28;20047;-76
2021/12/15 04:36:56;;;;;;;22.75;19.65;;;16.50;85.50;;;;;;5115364;28;20541;-76
2021/12/15 04:39:25;;;;;;;20.98;18.83;;;16.50;85.50;;;;;;5115071;28;20533;-76
2021/12/15 04:41:52;;;;;;;24.20;21.08;;;16.50;85.50;;;;;;5113605;28;20028;-75
2021/12/15 04:44:24;;;;;;;17.58;15.63;;;16.40;85.50;;;;;;5115220;28;20030;-76
2021/12/15 04:46:58;;;;;;;;;;;16.40;85.60;;;;;;5115706;28;20093;-75
2021/12/15 04:49:25;;;;;;;27.98;21.52;;;16.50;85.50;;;;;;5113491;28;19911;-74
2021/12/15 04:51:51;;;;;;;23.20;20.10;;;16.50;83.10;;;;;;5114955;28;20024;-74
2021/12/15 04:54:18;;;;;;;22.70;19.92;;;16.50;81.80;;;;;;5114878;28;20380;-74
2021/12/15 04:56:44;;;;;;;21.98;19.65;;;16.50;81.50;;;;;;5114560;27;20063;-76
2021/12/15 04:59:10;;;;;;;19.70;17.70;;;16.50;80.70;;;;;;5099247;28;20091;-76
2021/12/15 05:01:36;;;;;;;21.92;19.50;;;16.60;80.80;;;;;;5076942;28;20035;-76
2021/12/15 05:04:03;;;;;;;22.48;19.05;;;16.50;81.70;;;;;;5074013;28;20024;-77
2021/12/15 05:06:28;;;;;;;22.90;19.38;;;16.60;80.40;;;;;;5073684;28;20035;-75
2021/12/15 05:08:55;;;;;;;20.52;18.17;;;16.60;80.70;;;;;;5073867;28;20016;-77
2021/12/15 05:11:21;;;;;;;21.55;19.23;;;16.60;80.00;;;;;;5073396;28;20025;-77
2021/12/15 05:13:46;;;;;;;20.23;18.23;;;16.60;80.10;;;;;;5073575;28;20055;-76
2021/12/15 05:16:12;;;;;;;21.02;18.77;;;16.70;80.00;;;;;;5073484;28;20025;-77
2021/12/15 05:18:38;;;;;;;20.83;18.70;;;16.70;80.00;;;;;;5073743;28;20038;-77
2021/12/15 05:21:07;;;;;;;19.55;17.48;;;16.70;80.20;;;;;;5073756;28;20017;-77
2021/12/15 05:23:34;;;;;;;21.23;18.92;;;16.70;80.00;;;;;;5073866;28;20069;-77
2021/12/15 05:25:59;;;;;;;21.85;19.55;;;16.70;80.10;;;;;;5073473;28;20012;-76
2021/12/15 05:28:26;;;;;;;21.67;19.42;;;16.70;80.20;;;;;;5073354;28;20032;-75
2021/12/15 05:30:53;;;;;;;26.90;20.25;;;16.70;80.50;;;;;;5074041;28;20020;-76
2021/12/15 05:33:19;;;;;;;22.05;19.67;;;16.70;80.40;;;;;;5073780;28;20027;-77
2021/12/15 05:35:45;;;;;;;20.50;18.33;;;16.70;80.40;;;;;;5073446;28;20032;-76
2021/12/15 05:38:12;;;;;;;20.63;18.42;;;16.60;80.20;;;;;;5073398;28;20024;-76
2021/12/15 05:40:38;;;;;;;21.42;19.33;;;16.70;80.60;;;;;;5073154;28;20048;-76
2021/12/15 05:43:06;;;;;;;19.45;17.13;;;16.60;80.20;;;;;;5073515;28;20036;-76
2021/12/15 05:45:34;;;;;;;13.95;12.45;;;16.60;80.50;;;;;;5072259;28;20038;-75
2021/12/15 05:48:01;;;;;;;17.55;15.77;;;16.60;79.90;;;;;;5073365;28;20377;-76
2021/12/15 05:50:29;;;;;;;14.27;12.82;;;16.60;80.50;;;;;;5073010;28;20485;-76
2021/12/15 05:52:55;;;;;;;17.42;10.57;;;16.70;80.00;;;;;;5073394;28;20032;-69
2021/12/15 05:55:21;;;;;;;17.55;13.73;;;16.70;82.20;;;;;;5072959;28;20033;-70
2021/12/15 05:57:48;;;;;;;15.63;13.02;;;16.60;83.40;;;;;;5073199;28;20099;-70
2021/12/15 06:00:18;;;;;;;14.57;13.07;;;16.60;84.00;;;;;;5073049;28;20021;-69
2021/12/15 06:02:44;;;;;;;16.45;14.75;;;16.50;84.40;;;;;;5078482;28;20082;-70
2021/12/15 06:05:10;;;;;;;20.35;17.40;;;16.50;84.60;;;;;;5072238;28;20025;-70
2021/12/15 06:07:38;;;;;;;17.92;16.02;;;16.40;85.10;;;;;;5070837;28;20094;-71
2021/12/15 06:10:06;;;;;;;17.63;15.13;;;16.40;85.30;;;;;;5071212;28;20034;-69
2021/12/15 06:12:32;;;;;;;20.13;16.95;;;16.40;85.30;;;;;;5072861;28;20036;-69
2021/12/15 06:14:57;;;;;;;19.15;17.05;;;16.30;85.70;;;;;;5072134;28;20037;-69
2021/12/15 06:17:25;;;;;;;17.63;15.65;;;16.30;86.00;;;;;;5072635;28;20112;-69
2021/12/15 06:19:53;;;;;;;18.35;15.65;;;16.30;86.10;;;;;;5073338;28;20025;-69
2021/12/15 06:22:24;;;;;;;15.98;14.32;;;16.10;86.60;;;;;;5072966;28;20024;-69
2021/12/15 06:24:50;;;;;;;17.27;14.48;;;16.20;86.40;;;;;;5072747;28;20029;-69
2021/12/15 06:27:19;;;;;;;17.98;16.02;;;16.30;86.30;;;;;;5072822;28;20013;-70
2021/12/15 06:29:46;;;;;;;18.73;13.07;;;16.30;86.40;;;;;;5072816;28;20032;-69
2021/12/15 06:32:12;;;;;;;15.30;13.60;;;16.20;86.50;;;;;;5072863;28;20012;-69
2021/12/15 06:34:38;;;;;;;16.95;13.88;;;16.30;86.40;;;;;;5072998;28;20042;-69
2021/12/15 06:37:04;;;;;;;15.23;13.63;;;16.30;86.40;;;;;;5081547;28;20024;-69
2021/12/15 06:39:30;;;;;;;17.75;14.95;;;16.30;86.40;;;;;;5075819;28;20052;-69
2021/12/15 06:41:56;;;;;;;19.75;16.92;;;16.20;86.70;;;;;;5096129;28;20069;-70
2021/12/15 06:44:22;;;;;;;16.83;15.02;;;16.10;87.00;;;;;;5096802;28;20028;-69
2021/12/15 06:47:22;;;;;;;15.77;13.55;;;16.20;87.10;;;;;;5085846;28;20028;-69
2021/12/15 07:00:48;;;;;;;17.73;15.93;;;16.10;87.60;;;;;;5086966;28;20035;-69
2021/12/15 07:03:17;;;;;;;18.65;16.30;;;16.00;88.10;;;;;;5099081;28;20035;-69
2021/12/15 07:05:43;;;;;;;20.15;17.60;;;16.00;88.00;;;;;;5079858;28;20036;-60
2021/12/15 07:08:11;;;;;;;19.95;16.83;;;15.60;89.80;;;;;;5079516;28;20024;-58
2021/12/15 07:10:40;;;;;;;17.17;15.32;;;14.90;91.20;;;;;;5090558;28;20020;-60
2021/12/15 07:13:07;;;;;;;19.50;17.13;;;14.60;92.00;;;;;;5094342;28;20039;-60
2021/12/15 07:15:34;;;;;;;16.02;14.13;;;14.50;92.50;;;;;;5081648;28;20071;-59
2021/12/15 07:18:04;;;;;;;17.38;15.43;;;14.30;92.80;;;;;;5076017;28;20032;-59
2021/12/15 07:20:39;;;;;;;20.10;15.63;;;14.30;93.10;;;;;;5076062;28;20127;-60
2021/12/15 07:23:11;;;;;;;17.35;15.48;;;14.20;93.20;;;;;;5083514;28;20458;-59
2021/12/15 07:25:39;;;;;;;15.93;13.93;;;14.20;93.40;;;;;;5086128;28;20028;-59
2021/12/15 07:28:05;;;;;;;19.33;14.63;;;14.20;93.50;;;;;;5075507;28;20066;-59
2021/12/15 07:30:31;;;;;;;16.83;15.13;;;14.20;93.60;;;;;;5076102;28;20056;-60
2021/12/15 07:32:58;;;;;;;20.05;17.10;;;14.10;93.70;;;;;;5075903;28;20074;-59
2021/12/15 07:35:25;;;;;;;20.77;17.70;;;14.20;93.80;;;;;;5076149;28;20033;-59
2021/12/15 07:37:51;;;;;;;18.92;15.05;;;14.20;93.90;;;;;;5087025;28;20016;-59
2021/12/15 07:40:21;;;;;;;21.13;18.73;;;14.20;94.00;;;;;;5075667;28;20359;-59
2021/12/15 07:45:26;;;;;;;20.75;18.52;;;14.20;94.00;;;;;;5096165;28;20477;-62
2021/12/15 07:47:54;;;;;;;8.63;6.88;;;14.10;94.10;;;;;;5092336;28;20089;-59
2021/12/15 07:50:21;;;;;;;14.38;11.20;;;14.20;94.60;;;;;;5074398;28;20021;-59
2021/12/15 07:52:48;;;;;;;18.38;16.48;;;14.30;94.50;;;;;;5076029;28;20032;-59
2021/12/15 07:55:15;;;;;;;20.73;18.45;;;14.30;94.30;;;;;;5087188;28;20088;-60
2021/12/15 07:57:41;;;;;;;21.42;19.10;;;14.30;94.10;;;;;;5095300;28;20093;-59
2021/12/15 08:00:09;;;;;;;16.10;14.10;;;14.30;94.00;;;;;;5094589;28;20031;-59
2021/12/15 08:02:35;;;;;;;25.38;19.40;;;14.30;94.20;;;;;;5090039;28;20028;-60
2021/12/15 08:05:00;;;;;;;20.55;17.60;;;14.30;94.00;;;;;;5074869;28;20031;-59
2021/12/15 08:07:26;;;;;;;21.17;17.65;;;14.30;94.00;;;;;;5075215;28;20024;-59
2021/12/15 08:09:51;;;;;;;21.92;19.25;;;14.30;94.00;;;;;;5074333;28;20020;-59
2021/12/15 08:12:17;;;;;;;20.88;18.25;;;14.30;94.10;;;;;;5087037;28;20107;-59
2021/12/15 08:14:43;;;;;;;22.58;19.27;;;14.30;94.00;;;;;;5093072;28;20039;-59
2021/12/15 08:17:08;;;;;;;24.85;20.88;;;14.30;94.00;;;;;;5089976;28;20069;-59
2021/12/15 08:19:34;;;;;;;18.17;16.23;;;14.30;94.00;;;;;;5084637;28;20481;-59
2021/12/15 08:22:00;;;;;;;19.63;14.68;;;14.20;94.30;;;;;;5083670;28;20028;-59
2021/12/15 08:24:25;;;;;;;20.25;17.92;;;14.30;94.50;;;;;;5078450;28;20027;-59
2021/12/15 08:26:51;;;;;;;24.80;18.70;;;14.30;94.60;;;;;;5077746;28;20032;-59
2021/12/15 08:29:17;;;;;;;16.05;13.25;;;14.20;94.40;;;;;;5094708;28;20024;-59
2021/12/15 08:31:42;;;;;;;16.27;13.13;;;14.30;94.60;;;;;;5095041;28;20032;-60
2021/12/15 08:34:08;;;;;;;21.73;18.33;;;14.30;94.80;;;;;;5083514;28;20473;-60
2021/12/15 08:36:38;;;;;;;16.40;12.05;;;14.30;94.70;;;;;;5089418;28;20024;-60
2021/12/15 08:39:07;;;;;;;22.02;18.88;;;14.20;94.80;;;;;;5093235;28;20035;-60
2021/12/15 08:41:33;;;;;;;18.15;14.50;;;14.30;94.70;;;;;;5074363;28;20055;-60
2021/12/15 08:44:00;;;;;;;24.63;19.17;;;14.30;94.70;;;;;;5082062;28;20032;-59
2021/12/15 08:46:33;;;;;;;23.52;19.38;;;14.30;94.90;;;;;;5089354;28;20016;-59
2021/12/15 08:49:01;;;;;;;24.92;18.20;;;14.30;95.00;;;;;;5074548;28;20036;-59
2021/12/15 08:51:28;;;;;;;18.75;16.25;;;14.30;95.10;;;;;;5077358;28;20024;-60
2021/12/15 08:53:58;;;;;;;26.15;18.92;;;14.30;95.40;;;;;;5084157;28;20040;-59
2021/12/15 08:56:24;;;;;;;17.38;14.02;;;14.30;95.40;;;;;;5079752;28;20024;-59
2021/12/15 08:58:50;;;;;;;25.77;21.75;;;14.30;95.40;;;;;;5081660;28;20535;-59
2021/12/15 09:01:15;;;;;;;25.48;19.80;;;14.30;95.20;;;;;;5081604;28;20058;-59
2021/12/15 09:03:43;;;;;;;16.17;12.93;;;14.40;94.80;;;;;;5083750;28;20024;-59
2021/12/15 09:06:09;;;;;;;17.17;12.95;;;14.30;95.20;;;;;;5084452;28;20059;-59
2021/12/15 09:08:35;;;;;;;15.55;12.27;;;14.30;95.30;;;;;;5083458;28;20118;-59
2021/12/15 09:11:05;;;;;;;17.02;14.32;;;14.40;95.40;;;;;;5083938;28;20448;-59
2021/12/15 09:13:32;;;;;;;17.80;13.38;;;14.30;95.30;;;;;;5080263;28;20032;-59
2021/12/15 09:16:05;;;;;;;17.73;13.65;;;14.40;95.30;;;;;;5079924;28;20036;-59
2021/12/15 09:18:31;;;;;;;15.73;9.80;;;14.40;95.40;;;;;;5079560;28;20013;-59
2021/12/15 09:20:57;;;;;;;11.93;9.18;;;14.40;95.80;;;;;;5082749;28;20028;-59
2021/12/15 09:23:23;;;;;;;17.75;15.52;;;14.40;95.50;;;;;;5077512;28;20020;-59
2021/12/15 09:25:49;;;;;;;17.70;15.82;;;14.50;95.40;;;;;;5079360;28;21409;-59
2021/12/15 09:28:16;;;;;;;22.23;18.65;;;14.50;95.10;;;;;;5081485;28;20062;-60
2021/12/15 09:30:46;;;;;;;24.45;20.67;;;14.50;94.50;;;;;;5080693;28;20173;-60
2021/12/15 09:33:18;;;;;;;22.65;18.08;;;14.50;94.40;;;;;;5079957;28;20040;-59
2021/12/15 09:35:44;;;;;;;22.38;18.70;;;14.40;94.30;;;;;;5079612;28;20047;-58
2021/12/15 09:38:15;;;;;;;24.08;19.80;;;14.50;94.20;;;;;;5086614;28;20095;-59
2021/12/15 09:40:41;;;;;;;20.45;18.02;;;14.40;94.20;;;;;;5083676;28;20028;-58
2021/12/15 09:43:09;;;;;;;20.70;18.50;;;14.40;94.20;;;;;;5086721;28;20062;-58
2021/12/15 09:45:45;;;;;;;23.85;19.27;;;14.40;94.20;;;;;;5082848;28;20028;-59
2021/12/15 10:04:28;;;;;;;19.25;16.85;;;14.40;94.20;;;;;;5079840;28;20373;-58
2021/12/15 10:17:22;;;;;;;18.38;13.38;;;14.40;95.10;;;;;;5082871;28;20046;-59
2021/12/15 10:18:17;;;;;;;19.85;15.60;;;14.70;94.80;;;;;;5085395;28;20097;-59
2021/12/15 10:20:43;;;;;;;22.17;16.35;;;14.70;94.50;;;;;;5088985;28;20362;-60
2021/12/15 10:23:15;;;;;;;19.38;16.58;;;14.60;94.00;;;;;;5087681;28;20024;-59
2021/12/15 10:25:49;;;;;;;19.33;16.08;;;14.60;93.80;;;;;;5084895;28;20027;-59
2021/12/15 10:28:19;;;;;;;20.35;17.75;;;14.60;93.80;;;;;;5086888;28;20024;-59
2021/12/15 10:30:50;;;;;;;18.77;16.42;;;14.60;93.80;;;;;;5085851;28;20016;-60
2021/12/15 10:33:26;;;;;;;18.75;15.80;;;14.60;93.90;;;;;;5092303;28;20024;-60
2021/12/15 10:36:07;;;;;;;20.65;16.27;;;14.60;93.90;;;;;;5091934;28;20117;-60
2021/12/15 10:38:37;;;;;;;20.83;15.75;;;14.50;93.80;;;;;;5092299;28;20023;-59
2021/12/15 10:41:09;;;;;;;21.08;16.70;;;14.60;94.10;;;;;;5081916;28;20029;-59
2021/12/15 10:43:57;;;;;;;19.90;17.50;;;14.60;94.40;;;;;;5091939;28;20111;-59
2021/12/15 10:46:27;;;;;;;22.88;10.38;;;14.60;94.00;;;;;;5085976;28;20044;-60
2021/12/15 10:49:02;;;;;;;15.13;11.10;;;14.60;94.30;;;;;;5086728;28;20469;-60
2021/12/15 10:51:37;;;;;;;15.13;13.27;;;14.60;89.90;;;;;;5092818;28;20107;-59
2021/12/15 10:54:16;;;;;;;16.17;14.18;;;14.70;89.70;;;;;;5091013;28;20074;-60
2021/12/15 10:57:07;;;;;;;17.23;15.48;;;14.70;88.90;;;;;;5085674;28;20389;-60
2021/12/15 10:59:39;;;;;;;17.77;15.80;;;14.70;87.70;;;;;;5082161;28;20393;-59
2021/12/15 11:02:12;;;;;;;22.13;13.98;;;14.70;88.60;;;;;;5082737;28;20051;-61
2021/12/15 11:04:59;;;;;;;16.75;14.43;;;14.90;92.50;;;;;;5084186;28;20032;-62
2021/12/15 11:07:29;;;;;;;18.58;15.18;;;14.80;92.70;;;;;;5079630;28;20027;-62
2021/12/15 11:10:17;;;;;;;16.80;15.05;;;14.80;92.90;;;;;;5080180;28;20013;-62
2021/12/15 11:13:14;;;;;;;17.88;15.52;;;14.80;93.00;;;;;;5080219;28;20028;-62
2021/12/15 11:15:44;;;;;;;16.40;14.43;;;14.80;93.10;;;;;;5088605;28;20563;-62
2021/12/15 11:18:20;;;;;;;16.90;14.48;;;14.90;93.40;;;;;;5085017;28;20478;-62
2021/12/15 11:20:52;;;;;;;15.85;14.10;;;14.90;93.80;;;;;;5085527;28;20172;-62
2021/12/15 11:23:19;;;;;;;16.73;14.93;;;14.90;93.30;;;;;;5073759;28;20029;-62
2021/12/15 11:25:53;;;;;;;17.13;15.32;;;14.90;93.10;;;;;;5078849;28;20027;-62
2021/12/15 11:28:21;;;;;;;18.05;15.60;;;14.90;93.00;;;;;;5084593;28;20461;-62
2021/12/15 11:30:54;;;;;;;17.88;15.25;;;14.80;93.20;;;;;;5078326;28;20397;-62
2021/12/15 11:33:27;;;;;;;17.13;15.32;;;14.80;93.30;;;;;;5081180;28;20037;-62
2021/12/15 11:36:10;;;;;;;17.30;15.38;;;14.80;93.30;;;;;;5076980;28;20040;-62
2021/12/15 11:39:11;;;;;;;17.30;14.85;;;14.80;93.20;;;;;;5082492;28;20042;-62
2021/12/15 11:41:40;;;;;;;12.20;10.70;;;14.80;93.30;;;;;;5078628;28;20507;-61
2021/12/15 11:44:14;;;;;;;17.55;15.80;;;15.00;94.60;;;;;;5083781;28;20392;-61
2021/12/15 11:46:42;;;;;;;16.98;15.18;;;14.90;93.40;;;;;;5095901;28;20115;-62
2021/12/15 11:49:09;;;;;;;17.60;15.70;;;14.90;93.20;;;;;;5090155;28;20108;-62
2021/12/15 11:52:05;;;;;;;17.35;14.75;;;14.90;93.10;;;;;;5080846;28;20081;-59
2021/12/15 11:54:35;;;;;;;18.58;14.77;;;14.90;93.10;;;;;;5083415;28;20558;-61
2021/12/15 11:57:07;;;;;;;12.68;10.15;;;14.90;93.20;;;;;;5091419;28;20413;-61
2021/12/15 11:59:37;;;;;;;16.67;14.75;;;14.90;93.60;;;;;;5083532;28;20481;-62
2021/12/15 12:02:07;;;;;;;20.60;14.68;;;15.00;93.40;;;;;;5087339;28;20066;-62
2021/12/15 12:04:47;;;;;;;12.30;9.73;;;14.90;93.20;;;;;;5078322;28;20105;-60
2021/12/15 12:07:19;;;;;;;10.18;9.02;;;14.90;93.60;;;;;;5087511;28;20020;-62
2021/12/15 12:09:48;;;;;;;15.35;13.68;;;15.00;93.90;;;;;;5082499;28;20119;-68
2021/12/15 12:12:16;;;;;;;12.90;11.50;;;15.00;93.70;;;;;;5082008;28;20024;-71
2021/12/15 12:14:49;;;;;;;14.70;12.15;;;15.00;93.90;;;;;;5079148;28;20052;-73
2021/12/15 12:17:20;;;;;;;11.77;8.65;;;15.00;93.70;;;;;;5077627;28;20028;-70
2021/12/15 12:19:50;;;;;;;10.02;5.43;;;15.10;94.60;;;;;;5075399;28;20050;-67
2021/12/15 12:22:16;;;;;;;10.90;5.28;;;15.20;94.80;;;;;;5078774;28;20016;-63
2021/12/15 12:24:45;;;;;;;10.60;8.43;;;15.40;95.20;;;;;;5084086;28;20040;-72
2021/12/15 12:27:11;;;;;;;13.55;8.32;;;15.40;94.30;;;;;;5079569;28;20039;-68
2021/12/15 12:29:37;;;;;;;11.82;10.60;;;15.40;94.20;;;;;;5077888;28;20047;-72
2021/12/15 12:32:04;;;;;;;7.88;5.85;;;15.40;93.90;;;;;;5080558;28;20466;-71
2021/12/15 12:34:30;;;;;;;13.45;10.35;;;15.40;94.10;;;;;;5080075;28;20127;-69
2021/12/15 12:36:56;;;;;;;10.57;9.45;;;15.50;93.80;;;;;;5076118;28;20020;-72
2021/12/15 12:39:30;;;;;;;11.75;10.50;;;15.50;93.60;;;;;;5094201;28;20028;-70
2021/12/15 12:41:56;;;;;;;10.55;7.15;;;15.40;93.60;;;;;;5078308;28;20027;-62
2021/12/15 12:44:23;;;;;;;10.30;6.22;;;15.40;93.70;;;;;;5082977;28;20040;-70
2021/12/15 12:47:01;;;;;;;9.43;6.53;;;15.50;93.80;;;;;;5073356;28;20016;-71
2021/12/15 12:50:17;;;;;;;12.35;7.57;;;15.50;93.60;;;;;;5085256;28;20051;-68
2021/12/15 12:57:58;;;;;;;10.38;7.32;;;15.50;93.50;;;;;;5075456;28;20151;-67
2021/12/15 13:01:17;;;;;;;12.55;11.20;;;15.60;93.70;;;;;;5071102;28;20024;-70
2021/12/15 13:03:52;;;;;;;10.15;7.65;;;15.50;93.20;;;;;;5080149;28;20074;-64
2021/12/15 13:06:27;;;;;;;7.10;5.25;;;15.60;93.50;;;;;;5077897;28;20066;-66
2021/12/15 13:09:02;;;;;;;13.38;10.48;;;15.60;93.60;;;;;;5081283;28;20547;-67
2021/12/15 13:11:34;;;;;;;12.80;10.20;;;15.60;93.20;;;;;;5076044;28;20501;-65
2021/12/15 13:14:08;;;;;;;15.23;13.63;;;15.50;92.90;;;;;;5084732;28;20040;-67
2021/12/15 13:16:52;;;;;;;11.95;8.40;;;15.50;93.00;;;;;;5092558;28;20223;-70
2021/12/15 13:19:29;;;;;;;11.80;10.25;;;15.50;93.20;;;;;;5100894;28;20508;-69
2021/12/15 13:22:33;;;;;;;15.95;10.90;;;15.60;93.30;;;;;;5069335;28;20505;-70
2021/12/15 13:30:45;;;;;;;13.70;11.38;;;15.50;93.10;;;;;;5077174;28;20035;-72
2021/12/15 13:33:19;;;;;;;15.15;12.65;;;15.60;93.00;;;;;;5077406;28;20111;-69
2021/12/15 13:35:49;;;;;;;12.00;10.10;;;15.50;93.00;;;;;;5086048;28;20263;-67
2021/12/15 13:38:29;;;;;;;14.40;12.00;;;15.50;93.10;;;;;;5079011;28;20020;-68
2021/12/15 13:41:20;;;;;;;19.17;15.27;;;15.50;93.00;;;;;;5075259;28;20055;-71
2021/12/15 13:44:03;;;;;;;11.68;10.27;;;15.50;92.70;;;;;;5074129;28;20064;-68
2021/12/15 13:46:30;;;;;;;9.32;6.63;;;15.50;93.00;;;;;;5071778;28;20072;-68
2021/12/15 13:49:28;;;;;;;9.98;7.97;;;15.50;93.40;;;;;;5088700;28;20013;-67
2021/12/15 13:52:14;;;;;;;15.18;13.55;;;15.60;93.50;;;;;;5076042;28;20028;-71
2021/12/15 13:54:40;;;;;;;9.13;7.20;;;15.60;92.90;;;;;;5073058;28;20038;-73
2021/12/15 13:57:11;;;;;;;11.77;9.02;;;15.70;93.50;;;;;;5075101;28;20127;-71
2021/12/15 13:59:48;;;;;;;10.13;9.15;;;15.70;93.40;;;;;;5075416;28;20763;-68
2021/12/15 14:02:19;;;;;;;10.82;9.07;;;15.70;93.30;;;;;;5074818;28;20682;-69
2021/12/15 14:04:47;;;;;;;11.27;10.05;;;15.80;93.30;;;;;;5071340;28;20308;-71